sensor_id;sensor_type;location;lat;lon;timestamp;P1;durP1;ratioP1;P2;durP2;ratioP2
69172;SDS011;56280;49.662;8.408;2024-03-25T00:00:47;18.53;;;17.33;;
69172;SDS011;56280;49.662;8.408;2024-03-25T00:03:13;21.03;;;19.63;;
69172;SDS011;56280;49.662;8.408;2024-03-25T00:05:38;21.23;;;19.73;;
69172;SDS011;56280;49.662;8.408;2024-03-25T00:08:04;17.67;;;16.27;;
69172;SDS011;56280;49.662;8.408;2024-03-25T00:10:29;17.47;;;16.17;;
69172;SDS011;56280;49.662;8.408;2024-03-25T00:12:54;18.67;;;17.27;;
69172;SDS011;56280;49.662;8.408;2024-03-25T00:15:21;17.40;;;16.10;;
69172;SDS011;56280;49.662;8.408;2024-03-25T00:17:48;18.17;;;16.67;;
69172;SDS011;56280;49.662;8.408;2024-03-25T00:20:14;19.83;;;18.50;;
69172;SDS011;56280;49.662;8.408;2024-03-25T00:22:40;18.95;;;17.60;;
69172;SDS011;56280;49.662;8.408;2024-03-25T00:25:05;20.83;;;19.33;;
69172;SDS011;56280;49.662;8.408;2024-03-25T00:27:31;19.83;;;18.50;;
69172;SDS011;56280;49.662;8.408;2024-03-25T00:29:56;21.03;;;19.53;;
69172;SDS011;56280;49.662;8.408;2024-03-25T00:32:21;20.93;;;19.33;;
69172;SDS011;56280;49.662;8.408;2024-03-25T00:34:47;20.30;;;18.80;;
69172;SDS011;56280;49.662;8.408;2024-03-25T00:37:12;18.60;;;17.35;;
69172;SDS011;56280;49.662;8.408;2024-03-25T00:39:37;19.70;;;18.23;;
69172;SDS011;56280;49.662;8.408;2024-03-25T00:42:03;20.23;;;18.83;;
69172;SDS011;56280;49.662;8.408;2024-03-25T00:44:28;21.50;;;20.02;;
69172;SDS011;56280;49.662;8.408;2024-03-25T00:46:54;19.97;;;18.37;;
69172;SDS011;56280;49.662;8.408;2024-03-25T00:49:20;18.63;;;17.33;;
69172;SDS011;56280;49.662;8.408;2024-03-25T00:51:46;18.98;;;17.50;;
69172;SDS011;56280;49.662;8.408;2024-03-25T00:54:11;19.48;;;18.00;;
69172;SDS011;56280;49.662;8.408;2024-03-25T00:56:37;20.50;;;19.00;;
69172;SDS011;56280;49.662;8.408;2024-03-25T00:59:02;20.27;;;18.67;;
69172;SDS011;56280;49.662;8.408;2024-03-25T01:01:31;21.23;;;19.67;;
69172;SDS011;56280;49.662;8.408;2024-03-25T01:03:57;18.00;;;16.60;;
69172;SDS011;56280;49.662;8.408;2024-03-25T01:06:22;21.80;;;20.27;;
69172;SDS011;56280;49.662;8.408;2024-03-25T01:08:48;19.63;;;18.17;;
69172;SDS011;56280;49.662;8.408;2024-03-25T01:11:13;21.27;;;19.87;;
69172;SDS011;56280;49.662;8.408;2024-03-25T01:13:38;17.90;;;16.53;;
69172;SDS011;56280;49.662;8.408;2024-03-25T01:16:06;18.80;;;17.50;;
69172;SDS011;56280;49.662;8.408;2024-03-25T01:18:31;18.20;;;16.80;;
69172;SDS011;56280;49.662;8.408;2024-03-25T01:20:57;21.07;;;19.37;;
69172;SDS011;56280;49.662;8.408;2024-03-25T01:23:22;22.50;;;21.03;;
69172;SDS011;56280;49.662;8.408;2024-03-25T01:25:47;22.60;;;21.10;;
69172;SDS011;56280;49.662;8.408;2024-03-25T01:28:12;20.67;;;19.17;;
69172;SDS011;56280;49.662;8.408;2024-03-25T01:30:38;21.27;;;19.77;;
69172;SDS011;56280;49.662;8.408;2024-03-25T01:33:06;18.85;;;17.40;;
69172;SDS011;56280;49.662;8.408;2024-03-25T01:35:31;20.13;;;18.63;;
69172;SDS011;56280;49.662;8.408;2024-03-25T01:37:57;22.75;;;21.17;;
69172;SDS011;56280;49.662;8.408;2024-03-25T01:40:22;20.77;;;19.10;;
69172;SDS011;56280;49.662;8.408;2024-03-25T01:42:57;21.37;;;19.80;;
69172;SDS011;56280;49.662;8.408;2024-03-25T01:45:31;20.10;;;18.58;;
69172;SDS011;56280;49.662;8.408;2024-03-25T01:47:58;20.30;;;18.80;;
69172;SDS011;56280;49.662;8.408;2024-03-25T01:50:26;23.80;;;22.10;;
69172;SDS011;56280;49.662;8.408;2024-03-25T01:52:51;23.23;;;21.63;;
69172;SDS011;56280;49.662;8.408;2024-03-25T01:55:21;21.33;;;19.93;;
69172;SDS011;56280;49.662;8.408;2024-03-25T01:57:49;17.73;;;16.20;;
69172;SDS011;56280;49.662;8.408;2024-03-25T02:00:15;18.67;;;17.17;;
69172;SDS011;56280;49.662;8.408;2024-03-25T02:02:42;18.00;;;16.67;;
69172;SDS011;56280;49.662;8.408;2024-03-25T02:05:09;19.52;;;18.10;;
69172;SDS011;56280;49.662;8.408;2024-03-25T02:07:38;22.13;;;20.65;;
69172;SDS011;56280;49.662;8.408;2024-03-25T02:10:06;21.45;;;19.65;;
69172;SDS011;56280;49.662;8.408;2024-03-25T02:12:32;23.33;;;21.60;;
69172;SDS011;56280;49.662;8.408;2024-03-25T02:14:58;22.02;;;20.50;;
69172;SDS011;56280;49.662;8.408;2024-03-25T02:17:24;20.97;;;19.50;;
69172;SDS011;56280;49.662;8.408;2024-03-25T02:19:49;20.27;;;18.77;;
69172;SDS011;56280;49.662;8.408;2024-03-25T02:22:15;18.45;;;16.95;;
69172;SDS011;56280;49.662;8.408;2024-03-25T02:24:41;19.90;;;18.60;;
69172;SDS011;56280;49.662;8.408;2024-03-25T02:27:06;19.80;;;18.40;;
69172;SDS011;56280;49.662;8.408;2024-03-25T02:29:36;19.63;;;18.17;;
69172;SDS011;56280;49.662;8.408;2024-03-25T02:32:01;18.75;;;17.30;;
69172;SDS011;56280;49.662;8.408;2024-03-25T02:34:27;16.07;;;14.80;;
69172;SDS011;56280;49.662;8.408;2024-03-25T02:36:52;20.30;;;18.90;;
69172;SDS011;56280;49.662;8.408;2024-03-25T02:39:18;19.53;;;18.07;;
69172;SDS011;56280;49.662;8.408;2024-03-25T02:41:44;20.63;;;19.07;;
69172;SDS011;56280;49.662;8.408;2024-03-25T02:44:11;17.92;;;16.52;;
69172;SDS011;56280;49.662;8.408;2024-03-25T02:46:38;17.70;;;16.30;;
69172;SDS011;56280;49.662;8.408;2024-03-25T02:49:05;21.38;;;19.77;;
69172;SDS011;56280;49.662;8.408;2024-03-25T02:51:30;22.33;;;20.63;;
69172;SDS011;56280;49.662;8.408;2024-03-25T02:53:55;22.00;;;20.40;;
69172;SDS011;56280;49.662;8.408;2024-03-25T02:56:21;23.07;;;21.37;;
69172;SDS011;56280;49.662;8.408;2024-03-25T02:58:46;21.47;;;19.87;;
69172;SDS011;56280;49.662;8.408;2024-03-25T03:01:11;20.20;;;18.40;;
69172;SDS011;56280;49.662;8.408;2024-03-25T03:03:37;21.33;;;19.73;;
69172;SDS011;56280;49.662;8.408;2024-03-25T03:06:02;20.00;;;18.53;;
69172;SDS011;56280;49.662;8.408;2024-03-25T03:08:27;21.10;;;19.50;;
69172;SDS011;56280;49.662;8.408;2024-03-25T03:10:52;19.03;;;17.57;;
69172;SDS011;56280;49.662;8.408;2024-03-25T03:13:18;19.60;;;18.10;;
69172;SDS011;56280;49.662;8.408;2024-03-25T03:15:43;21.20;;;19.50;;
69172;SDS011;56280;49.662;8.408;2024-03-25T03:18:09;19.70;;;18.10;;
69172;SDS011;56280;49.662;8.408;2024-03-25T03:20:35;20.40;;;18.95;;
69172;SDS011;56280;49.662;8.408;2024-03-25T03:23:00;20.00;;;18.38;;
69172;SDS011;56280;49.662;8.408;2024-03-25T03:25:25;21.05;;;19.55;;
69172;SDS011;56280;49.662;8.408;2024-03-25T03:27:51;21.80;;;20.08;;
69172;SDS011;56280;49.662;8.408;2024-03-25T03:30:16;21.55;;;19.90;;
69172;SDS011;56280;49.662;8.408;2024-03-25T03:32:41;21.50;;;19.85;;
69172;SDS011;56280;49.662;8.408;2024-03-25T03:35:07;20.83;;;19.40;;
69172;SDS011;56280;49.662;8.408;2024-03-25T03:37:32;18.98;;;17.67;;
69172;SDS011;56280;49.662;8.408;2024-03-25T03:39:57;20.75;;;19.13;;
69172;SDS011;56280;49.662;8.408;2024-03-25T03:42:23;19.73;;;18.23;;
69172;SDS011;56280;49.662;8.408;2024-03-25T03:44:48;19.50;;;18.17;;
69172;SDS011;56280;49.662;8.408;2024-03-25T03:47:13;20.60;;;19.07;;
69172;SDS011;56280;49.662;8.408;2024-03-25T03:49:38;21.03;;;19.47;;
69172;SDS011;56280;49.662;8.408;2024-03-25T03:52:04;21.50;;;19.70;;
69172;SDS011;56280;49.662;8.408;2024-03-25T03:54:29;20.40;;;18.70;;
69172;SDS011;56280;49.662;8.408;2024-03-25T03:56:54;20.77;;;19.17;;
69172;SDS011;56280;49.662;8.408;2024-03-25T03:59:19;19.03;;;17.50;;
69172;SDS011;56280;49.662;8.408;2024-03-25T04:01:45;20.47;;;18.97;;
69172;SDS011;56280;49.662;8.408;2024-03-25T04:04:10;23.00;;;21.10;;
69172;SDS011;56280;49.662;8.408;2024-03-25T04:06:35;22.70;;;21.00;;
69172;SDS011;56280;49.662;8.408;2024-03-25T04:09:00;20.50;;;18.70;;
69172;SDS011;56280;49.662;8.408;2024-03-25T04:11:26;19.73;;;18.13;;
69172;SDS011;56280;49.662;8.408;2024-03-25T04:13:51;21.33;;;19.63;;
69172;SDS011;56280;49.662;8.408;2024-03-25T04:16:16;21.37;;;19.77;;
69172;SDS011;56280;49.662;8.408;2024-03-25T04:18:42;21.80;;;20.23;;
69172;SDS011;56280;49.662;8.408;2024-03-25T04:21:11;19.37;;;17.87;;
69172;SDS011;56280;49.662;8.408;2024-03-25T04:23:37;18.80;;;17.30;;
69172;SDS011;56280;49.662;8.408;2024-03-25T04:26:02;19.75;;;18.08;;
69172;SDS011;56280;49.662;8.408;2024-03-25T04:28:31;19.00;;;17.52;;
69172;SDS011;56280;49.662;8.408;2024-03-25T04:30:56;19.97;;;18.33;;
69172;SDS011;56280;49.662;8.408;2024-03-25T04:33:21;19.70;;;18.13;;
69172;SDS011;56280;49.662;8.408;2024-03-25T04:35:47;19.07;;;17.30;;
69172;SDS011;56280;49.662;8.408;2024-03-25T04:38:12;19.13;;;17.50;;
69172;SDS011;56280;49.662;8.408;2024-03-25T04:40:39;20.30;;;18.60;;
69172;SDS011;56280;49.662;8.408;2024-03-25T04:43:04;21.13;;;19.53;;
69172;SDS011;56280;49.662;8.408;2024-03-25T04:45:30;18.20;;;16.60;;
69172;SDS011;56280;49.662;8.408;2024-03-25T04:47:55;20.17;;;18.50;;
69172;SDS011;56280;49.662;8.408;2024-03-25T04:50:20;19.63;;;17.90;;
69172;SDS011;56280;49.662;8.408;2024-03-25T04:52:45;20.20;;;18.60;;
69172;SDS011;56280;49.662;8.408;2024-03-25T04:55:11;23.53;;;21.60;;
69172;SDS011;56280;49.662;8.408;2024-03-25T04:57:36;21.07;;;19.07;;
69172;SDS011;56280;49.662;8.408;2024-03-25T05:00:01;21.10;;;19.37;;
69172;SDS011;56280;49.662;8.408;2024-03-25T05:02:27;20.45;;;18.67;;
69172;SDS011;56280;49.662;8.408;2024-03-25T05:04:52;20.95;;;18.85;;
69172;SDS011;56280;49.662;8.408;2024-03-25T05:07:18;18.80;;;17.13;;
69172;SDS011;56280;49.662;8.408;2024-03-25T05:09:43;19.60;;;18.00;;
69172;SDS011;56280;49.662;8.408;2024-03-25T05:12:09;18.90;;;17.13;;
69172;SDS011;56280;49.662;8.408;2024-03-25T05:14:34;19.80;;;17.90;;
69172;SDS011;56280;49.662;8.408;2024-03-25T05:16:59;19.00;;;17.20;;
69172;SDS011;56280;49.662;8.408;2024-03-25T05:19:27;20.70;;;19.10;;
69172;SDS011;56280;49.662;8.408;2024-03-25T05:21:52;19.90;;;18.23;;
69172;SDS011;56280;49.662;8.408;2024-03-25T05:24:17;20.57;;;18.87;;
69172;SDS011;56280;49.662;8.408;2024-03-25T05:26:43;21.13;;;19.27;;
69172;SDS011;56280;49.662;8.408;2024-03-25T05:29:08;18.10;;;16.60;;
69172;SDS011;56280;49.662;8.408;2024-03-25T05:31:33;21.60;;;19.70;;
69172;SDS011;56280;49.662;8.408;2024-03-25T05:33:59;18.08;;;16.65;;
69172;SDS011;56280;49.662;8.408;2024-03-25T05:36:27;18.00;;;16.48;;
69172;SDS011;56280;49.662;8.408;2024-03-25T05:38:52;20.97;;;19.23;;
69172;SDS011;56280;49.662;8.408;2024-03-25T05:41:18;20.55;;;18.77;;
69172;SDS011;56280;49.662;8.408;2024-03-25T05:43:43;19.80;;;18.07;;
69172;SDS011;56280;49.662;8.408;2024-03-25T05:46:08;19.73;;;18.13;;
69172;SDS011;56280;49.662;8.408;2024-03-25T05:48:33;21.83;;;19.93;;
69172;SDS011;56280;49.662;8.408;2024-03-25T05:50:59;19.20;;;17.53;;
69172;SDS011;56280;49.662;8.408;2024-03-25T05:53:28;19.87;;;18.00;;
69172;SDS011;56280;49.662;8.408;2024-03-25T05:55:54;18.52;;;16.98;;
69172;SDS011;56280;49.662;8.408;2024-03-25T05:58:20;18.77;;;17.10;;
69172;SDS011;56280;49.662;8.408;2024-03-25T06:00:47;18.73;;;17.33;;
69172;SDS011;56280;49.662;8.408;2024-03-25T06:03:13;20.47;;;18.77;;
69172;SDS011;56280;49.662;8.408;2024-03-25T06:05:38;23.23;;;21.23;;
69172;SDS011;56280;49.662;8.408;2024-03-25T06:08:04;18.93;;;17.37;;
69172;SDS011;56280;49.662;8.408;2024-03-25T06:10:29;21.50;;;19.85;;
69172;SDS011;56280;49.662;8.408;2024-03-25T06:13:00;23.27;;;21.43;;
69172;SDS011;56280;49.662;8.408;2024-03-25T06:15:25;22.33;;;20.53;;
69172;SDS011;56280;49.662;8.408;2024-03-25T06:17:51;21.60;;;19.87;;
69172;SDS011;56280;49.662;8.408;2024-03-25T06:20:16;20.73;;;18.83;;
69172;SDS011;56280;49.662;8.408;2024-03-25T06:22:41;22.57;;;20.70;;
69172;SDS011;56280;49.662;8.408;2024-03-25T06:25:06;18.87;;;17.23;;
69172;SDS011;56280;49.662;8.408;2024-03-25T06:27:32;21.13;;;19.40;;
69172;SDS011;56280;49.662;8.408;2024-03-25T06:29:57;20.47;;;18.67;;
69172;SDS011;56280;49.662;8.408;2024-03-25T06:32:42;17.83;;;16.42;;
69172;SDS011;56280;49.662;8.408;2024-03-25T06:35:26;18.75;;;17.00;;
69172;SDS011;56280;49.662;8.408;2024-03-25T06:37:51;18.13;;;16.63;;
69172;SDS011;56280;49.662;8.408;2024-03-25T06:40:17;19.00;;;17.40;;
69172;SDS011;56280;49.662;8.408;2024-03-25T06:42:42;16.40;;;15.03;;
69172;SDS011;56280;49.662;8.408;2024-03-25T06:45:07;12.47;;;11.27;;
69172;SDS011;56280;49.662;8.408;2024-03-25T06:47:33;10.07;;;7.25;;
69172;SDS011;56280;49.662;8.408;2024-03-25T06:49:58;11.53;;;5.67;;
69172;SDS011;56280;49.662;8.408;2024-03-25T06:52:23;9.23;;;4.67;;
69172;SDS011;56280;49.662;8.408;2024-03-25T06:54:48;9.27;;;5.03;;
69172;SDS011;56280;49.662;8.408;2024-03-25T06:57:14;8.40;;;4.57;;
69172;SDS011;56280;49.662;8.408;2024-03-25T06:59:39;9.43;;;4.87;;
69172;SDS011;56280;49.662;8.408;2024-03-25T07:02:04;9.63;;;4.57;;
69172;SDS011;56280;49.662;8.408;2024-03-25T07:04:29;9.40;;;5.13;;
69172;SDS011;56280;49.662;8.408;2024-03-25T07:06:55;10.88;;;4.22;;
69172;SDS011;56280;49.662;8.408;2024-03-25T07:09:20;10.00;;;5.27;;
69172;SDS011;56280;49.662;8.408;2024-03-25T07:11:46;8.43;;;4.67;;
69172;SDS011;56280;49.662;8.408;2024-03-25T07:14:12;9.50;;;4.50;;
69172;SDS011;56280;49.662;8.408;2024-03-25T07:16:37;9.20;;;4.10;;
69172;SDS011;56280;49.662;8.408;2024-03-25T07:19:02;8.83;;;4.63;;
69172;SDS011;56280;49.662;8.408;2024-03-25T07:21:28;8.93;;;4.07;;
69172;SDS011;56280;49.662;8.408;2024-03-25T07:23:53;10.67;;;4.80;;
69172;SDS011;56280;49.662;8.408;2024-03-25T07:26:18;9.33;;;4.10;;
69172;SDS011;56280;49.662;8.408;2024-03-25T07:28:44;11.23;;;4.67;;
69172;SDS011;56280;49.662;8.408;2024-03-25T07:31:09;9.70;;;4.90;;
69172;SDS011;56280;49.662;8.408;2024-03-25T07:33:34;8.67;;;4.63;;
69172;SDS011;56280;49.662;8.408;2024-03-25T07:35:59;9.93;;;4.83;;
69172;SDS011;56280;49.662;8.408;2024-03-25T07:38:25;9.93;;;4.47;;
69172;SDS011;56280;49.662;8.408;2024-03-25T07:40:50;9.63;;;4.50;;
69172;SDS011;56280;49.662;8.408;2024-03-25T07:43:15;7.95;;;4.20;;
69172;SDS011;56280;49.662;8.408;2024-03-25T07:45:41;10.93;;;4.63;;
69172;SDS011;56280;49.662;8.408;2024-03-25T07:48:06;9.63;;;4.50;;
69172;SDS011;56280;49.662;8.408;2024-03-25T07:50:33;9.30;;;4.47;;
69172;SDS011;56280;49.662;8.408;2024-03-25T07:52:58;10.60;;;5.37;;
69172;SDS011;56280;49.662;8.408;2024-03-25T07:55:23;8.37;;;4.77;;
69172;SDS011;56280;49.662;8.408;2024-03-25T07:57:48;12.00;;;4.30;;
69172;SDS011;56280;49.662;8.408;2024-03-25T08:00:14;11.07;;;4.90;;
69172;SDS011;56280;49.662;8.408;2024-03-25T08:02:39;11.40;;;4.40;;
69172;SDS011;56280;49.662;8.408;2024-03-25T08:05:04;8.55;;;4.35;;
69172;SDS011;56280;49.662;8.408;2024-03-25T08:07:30;8.48;;;4.25;;
69172;SDS011;56280;49.662;8.408;2024-03-25T08:09:55;11.40;;;4.77;;
69172;SDS011;56280;49.662;8.408;2024-03-25T08:12:20;8.73;;;4.20;;
69172;SDS011;56280;49.662;8.408;2024-03-25T08:14:46;12.70;;;4.43;;
69172;SDS011;56280;49.662;8.408;2024-03-25T08:17:11;10.52;;;4.00;;
69172;SDS011;56280;49.662;8.408;2024-03-25T08:19:36;9.95;;;4.05;;
69172;SDS011;56280;49.662;8.408;2024-03-25T08:22:01;10.47;;;4.00;;
69172;SDS011;56280;49.662;8.408;2024-03-25T08:24:27;9.37;;;4.47;;
69172;SDS011;56280;49.662;8.408;2024-03-25T08:26:52;7.70;;;4.00;;
69172;SDS011;56280;49.662;8.408;2024-03-25T08:29:17;7.80;;;4.23;;
69172;SDS011;56280;49.662;8.408;2024-03-25T08:31:43;9.27;;;4.20;;
69172;SDS011;56280;49.662;8.408;2024-03-25T08:34:08;8.57;;;4.20;;
69172;SDS011;56280;49.662;8.408;2024-03-25T08:36:33;9.17;;;4.40;;
69172;SDS011;56280;49.662;8.408;2024-03-25T08:38:58;7.73;;;3.80;;
69172;SDS011;56280;49.662;8.408;2024-03-25T08:41:24;8.90;;;3.67;;
69172;SDS011;56280;49.662;8.408;2024-03-25T08:43:49;9.47;;;3.30;;
69172;SDS011;56280;49.662;8.408;2024-03-25T08:46:14;7.63;;;3.37;;
69172;SDS011;56280;49.662;8.408;2024-03-25T08:48:40;9.43;;;3.97;;
69172;SDS011;56280;49.662;8.408;2024-03-25T08:51:05;5.83;;;2.90;;
69172;SDS011;56280;49.662;8.408;2024-03-25T08:53:30;7.13;;;2.77;;
69172;SDS011;56280;49.662;8.408;2024-03-25T08:55:56;6.93;;;3.40;;
69172;SDS011;56280;49.662;8.408;2024-03-25T08:58:21;9.07;;;3.07;;
69172;SDS011;56280;49.662;8.408;2024-03-25T09:00:46;7.90;;;2.80;;
69172;SDS011;56280;49.662;8.408;2024-03-25T09:03:11;8.40;;;2.83;;
69172;SDS011;56280;49.662;8.408;2024-03-25T09:05:38;7.57;;;2.83;;
69172;SDS011;56280;49.662;8.408;2024-03-25T09:08:04;9.17;;;3.17;;
69172;SDS011;56280;49.662;8.408;2024-03-25T09:10:31;9.15;;;3.20;;
69172;SDS011;56280;49.662;8.408;2024-03-25T09:13:15;8.10;;;3.30;;
69172;SDS011;56280;49.662;8.408;2024-03-25T09:15:41;7.27;;;2.97;;
69172;SDS011;56280;49.662;8.408;2024-03-25T09:18:06;8.60;;;3.00;;
69172;SDS011;56280;49.662;8.408;2024-03-25T09:20:31;8.30;;;3.30;;
69172;SDS011;56280;49.662;8.408;2024-03-25T09:22:57;8.73;;;3.30;;
69172;SDS011;56280;49.662;8.408;2024-03-25T09:25:22;7.43;;;2.97;;
69172;SDS011;56280;49.662;8.408;2024-03-25T09:27:48;7.88;;;3.38;;
69172;SDS011;56280;49.662;8.408;2024-03-25T09:30:15;8.43;;;3.50;;
69172;SDS011;56280;49.662;8.408;2024-03-25T09:32:41;8.82;;;3.53;;
69172;SDS011;56280;49.662;8.408;2024-03-25T09:35:07;8.48;;;3.38;;
69172;SDS011;56280;49.662;8.408;2024-03-25T09:37:36;7.72;;;3.10;;
69172;SDS011;56280;49.662;8.408;2024-03-25T09:40:01;8.90;;;3.03;;
69172;SDS011;56280;49.662;8.408;2024-03-25T09:42:33;9.70;;;3.53;;
69172;SDS011;56280;49.662;8.408;2024-03-25T09:45:01;7.85;;;3.40;;
69172;SDS011;56280;49.662;8.408;2024-03-25T09:47:28;8.50;;;3.22;;
69172;SDS011;56280;49.662;8.408;2024-03-25T09:49:54;6.70;;;3.50;;
69172;SDS011;56280;49.662;8.408;2024-03-25T09:52:19;7.97;;;3.33;;
69172;SDS011;56280;49.662;8.408;2024-03-25T09:54:45;8.80;;;3.42;;
69172;SDS011;56280;49.662;8.408;2024-03-25T09:57:10;8.50;;;3.53;;
69172;SDS011;56280;49.662;8.408;2024-03-25T09:59:37;7.65;;;3.45;;
69172;SDS011;56280;49.662;8.408;2024-03-25T10:02:02;8.90;;;3.20;;
69172;SDS011;56280;49.662;8.408;2024-03-25T10:04:29;8.80;;;3.60;;
69172;SDS011;56280;49.662;8.408;2024-03-25T10:06:54;7.00;;;3.25;;
69172;SDS011;56280;49.662;8.408;2024-03-25T10:09:20;6.82;;;3.10;;
69172;SDS011;56280;49.662;8.408;2024-03-25T10:11:49;7.93;;;3.30;;
69172;SDS011;56280;49.662;8.408;2024-03-25T10:14:18;6.65;;;3.17;;
69172;SDS011;56280;49.662;8.408;2024-03-25T10:16:48;7.88;;;3.40;;
69172;SDS011;56280;49.662;8.408;2024-03-25T10:19:14;8.70;;;3.67;;
69172;SDS011;56280;49.662;8.408;2024-03-25T10:21:39;8.53;;;3.33;;
69172;SDS011;56280;49.662;8.408;2024-03-25T10:24:05;8.20;;;3.43;;
69172;SDS011;56280;49.662;8.408;2024-03-25T10:26:31;7.55;;;3.10;;
69172;SDS011;56280;49.662;8.408;2024-03-25T10:28:58;8.07;;;3.13;;
69172;SDS011;56280;49.662;8.408;2024-03-25T10:31:28;8.43;;;3.50;;
69172;SDS011;56280;49.662;8.408;2024-03-25T10:33:53;9.60;;;3.03;;
69172;SDS011;56280;49.662;8.408;2024-03-25T10:36:19;7.30;;;3.33;;
69172;SDS011;56280;49.662;8.408;2024-03-25T10:38:45;7.65;;;3.55;;
69172;SDS011;56280;49.662;8.408;2024-03-25T10:41:13;7.63;;;2.90;;
69172;SDS011;56280;49.662;8.408;2024-03-25T10:43:43;7.70;;;3.45;;
69172;SDS011;56280;49.662;8.408;2024-03-25T10:46:11;7.90;;;3.47;;
69172;SDS011;56280;49.662;8.408;2024-03-25T10:48:40;8.85;;;3.28;;
69172;SDS011;56280;49.662;8.408;2024-03-25T10:51:13;7.70;;;3.50;;
69172;SDS011;56280;49.662;8.408;2024-03-25T10:53:39;6.68;;;3.28;;
69172;SDS011;56280;49.662;8.408;2024-03-25T10:56:06;6.82;;;3.10;;
69172;SDS011;56280;49.662;8.408;2024-03-25T10:58:31;7.17;;;3.30;;
69172;SDS011;56280;49.662;8.408;2024-03-25T11:00:58;7.50;;;3.05;;
69172;SDS011;56280;49.662;8.408;2024-03-25T11:03:25;7.95;;;3.28;;
69172;SDS011;56280;49.662;8.408;2024-03-25T11:05:51;8.68;;;3.47;;
69172;SDS011;56280;49.662;8.408;2024-03-25T11:08:17;8.30;;;3.22;;
69172;SDS011;56280;49.662;8.408;2024-03-25T11:10:46;8.03;;;3.40;;
69172;SDS011;56280;49.662;8.408;2024-03-25T11:13:12;7.72;;;3.50;;
69172;SDS011;56280;49.662;8.408;2024-03-25T11:15:45;7.18;;;3.42;;
69172;SDS011;56280;49.662;8.408;2024-03-25T11:18:12;6.70;;;3.35;;
69172;SDS011;56280;49.662;8.408;2024-03-25T11:20:38;8.02;;;3.40;;
69172;SDS011;56280;49.662;8.408;2024-03-25T11:23:11;8.23;;;3.57;;
69172;SDS011;56280;49.662;8.408;2024-03-25T11:25:38;10.55;;;3.85;;
69172;SDS011;56280;49.662;8.408;2024-03-25T11:28:04;8.37;;;3.53;;
69172;SDS011;56280;49.662;8.408;2024-03-25T11:30:30;7.18;;;3.58;;
69172;SDS011;56280;49.662;8.408;2024-03-25T11:32:56;8.18;;;3.65;;
69172;SDS011;56280;49.662;8.408;2024-03-25T11:35:23;6.00;;;3.17;;
69172;SDS011;56280;49.662;8.408;2024-03-25T11:37:49;7.20;;;3.33;;
69172;SDS011;56280;49.662;8.408;2024-03-25T11:40:17;7.05;;;3.38;;
69172;SDS011;56280;49.662;8.408;2024-03-25T11:42:43;9.67;;;3.60;;
69172;SDS011;56280;49.662;8.408;2024-03-25T11:45:15;9.07;;;3.58;;
69172;SDS011;56280;49.662;8.408;2024-03-25T11:47:46;7.20;;;3.22;;
69172;SDS011;56280;49.662;8.408;2024-03-25T11:50:13;6.93;;;3.53;;
69172;SDS011;56280;49.662;8.408;2024-03-25T11:52:43;5.97;;;3.30;;
69172;SDS011;56280;49.662;8.408;2024-03-25T11:55:08;7.13;;;2.85;;
69172;SDS011;56280;49.662;8.408;2024-03-25T11:57:35;7.30;;;3.22;;
69172;SDS011;56280;49.662;8.408;2024-03-25T12:00:01;7.17;;;3.40;;
69172;SDS011;56280;49.662;8.408;2024-03-25T12:02:30;7.73;;;3.30;;
69172;SDS011;56280;49.662;8.408;2024-03-25T12:04:56;6.13;;;3.28;;
69172;SDS011;56280;49.662;8.408;2024-03-25T12:07:21;8.67;;;3.40;;
69172;SDS011;56280;49.662;8.408;2024-03-25T12:09:47;6.80;;;3.30;;
69172;SDS011;56280;49.662;8.408;2024-03-25T12:12:32;7.30;;;3.42;;
69172;SDS011;56280;49.662;8.408;2024-03-25T12:14:57;6.80;;;3.75;;
69172;SDS011;56280;49.662;8.408;2024-03-25T12:17:23;8.20;;;3.70;;
69172;SDS011;56280;49.662;8.408;2024-03-25T12:22:44;6.03;;;2.95;;
69172;SDS011;56280;49.662;8.408;2024-03-25T12:25:10;7.37;;;3.10;;
69172;SDS011;56280;49.662;8.408;2024-03-25T12:27:36;8.57;;;3.17;;
69172;SDS011;56280;49.662;8.408;2024-03-25T12:34:58;6.73;;;2.97;;
69172;SDS011;56280;49.662;8.408;2024-03-25T12:37:25;5.50;;;2.80;;
69172;SDS011;56280;49.662;8.408;2024-03-25T12:39:51;6.35;;;2.60;;
69172;SDS011;56280;49.662;8.408;2024-03-25T12:42:16;6.40;;;2.43;;
69172;SDS011;56280;49.662;8.408;2024-03-25T12:44:41;7.03;;;3.00;;
69172;SDS011;56280;49.662;8.408;2024-03-25T12:47:07;6.77;;;2.40;;
69172;SDS011;56280;49.662;8.408;2024-03-25T12:49:32;7.17;;;2.70;;
69172;SDS011;56280;49.662;8.408;2024-03-25T12:51:57;6.40;;;2.97;;
69172;SDS011;56280;49.662;8.408;2024-03-25T12:54:23;6.82;;;2.28;;
69172;SDS011;56280;49.662;8.408;2024-03-25T12:56:48;6.18;;;2.75;;
69172;SDS011;56280;49.662;8.408;2024-03-25T12:59:14;5.82;;;2.35;;
69172;SDS011;56280;49.662;8.408;2024-03-25T13:01:39;5.07;;;2.33;;
69172;SDS011;56280;49.662;8.408;2024-03-25T13:04:05;6.85;;;2.25;;
69172;SDS011;56280;49.662;8.408;2024-03-25T13:06:31;7.13;;;2.23;;
69172;SDS011;56280;49.662;8.408;2024-03-25T13:08:56;5.90;;;2.20;;
69172;SDS011;56280;49.662;8.408;2024-03-25T13:11:21;5.97;;;2.20;;
69172;SDS011;56280;49.662;8.408;2024-03-25T13:13:47;5.57;;;2.37;;
69172;SDS011;56280;49.662;8.408;2024-03-25T13:16:12;6.57;;;2.30;;
69172;SDS011;56280;49.662;8.408;2024-03-25T13:18:37;6.10;;;2.60;;
69172;SDS011;56280;49.662;8.408;2024-03-25T13:21:03;7.23;;;2.57;;
69172;SDS011;56280;49.662;8.408;2024-03-25T13:23:28;6.25;;;2.30;;
69172;SDS011;56280;49.662;8.408;2024-03-25T13:25:54;5.82;;;2.30;;
69172;SDS011;56280;49.662;8.408;2024-03-25T13:28:19;6.70;;;2.50;;
69172;SDS011;56280;49.662;8.408;2024-03-25T13:30:44;7.03;;;2.30;;
69172;SDS011;56280;49.662;8.408;2024-03-25T13:33:09;6.07;;;2.20;;
69172;SDS011;56280;49.662;8.408;2024-03-25T13:35:35;5.43;;;2.23;;
69172;SDS011;56280;49.662;8.408;2024-03-25T13:38:02;6.15;;;2.35;;
69172;SDS011;56280;49.662;8.408;2024-03-25T13:40:27;5.27;;;2.40;;
69172;SDS011;56280;49.662;8.408;2024-03-25T13:42:52;5.33;;;2.37;;
69172;SDS011;56280;49.662;8.408;2024-03-25T13:45:18;5.47;;;2.37;;
69172;SDS011;56280;49.662;8.408;2024-03-25T13:47:43;5.57;;;2.57;;
69172;SDS011;56280;49.662;8.408;2024-03-25T13:50:08;8.43;;;2.67;;
69172;SDS011;56280;49.662;8.408;2024-03-25T13:52:34;7.50;;;2.57;;
69172;SDS011;56280;49.662;8.408;2024-03-25T13:54:59;4.90;;;2.50;;
69172;SDS011;56280;49.662;8.408;2024-03-25T13:57:25;5.68;;;2.45;;
69172;SDS011;56280;49.662;8.408;2024-03-25T13:59:51;7.40;;;2.90;;
69172;SDS011;56280;49.662;8.408;2024-03-25T14:02:16;5.47;;;2.43;;
69172;SDS011;56280;49.662;8.408;2024-03-25T14:04:41;7.20;;;2.30;;
69172;SDS011;56280;49.662;8.408;2024-03-25T14:07:06;5.77;;;2.63;;
69172;SDS011;56280;49.662;8.408;2024-03-25T14:09:32;6.00;;;2.80;;
69172;SDS011;56280;49.662;8.408;2024-03-25T14:11:57;6.20;;;2.77;;
69172;SDS011;56280;49.662;8.408;2024-03-25T14:14:23;6.27;;;2.57;;
69172;SDS011;56280;49.662;8.408;2024-03-25T14:16:49;6.40;;;2.53;;
69172;SDS011;56280;49.662;8.408;2024-03-25T14:19:14;5.95;;;2.72;;
69172;SDS011;56280;49.662;8.408;2024-03-25T14:21:39;5.60;;;2.70;;
69172;SDS011;56280;49.662;8.408;2024-03-25T14:24:05;5.78;;;2.90;;
69172;SDS011;56280;49.662;8.408;2024-03-25T14:26:31;7.28;;;2.80;;
69172;SDS011;56280;49.662;8.408;2024-03-25T14:28:56;7.90;;;2.60;;
69172;SDS011;56280;49.662;8.408;2024-03-25T14:31:21;7.13;;;3.50;;
69172;SDS011;56280;49.662;8.408;2024-03-25T14:33:47;6.73;;;3.00;;
69172;SDS011;56280;49.662;8.408;2024-03-25T14:36:12;5.97;;;2.87;;